Time;durP1;ratioP1;P1;durP2;ratioP2;P2;SDS_P1;SDS_P2;PMS_P1;PMS_P2;Temp;Humidity;BMP_temperature;BMP_pressure;BME280_temperature;BME280_humidity;BME280_pressure;Samples;Min_cycle;Max_cycle;Signal;HPM_P1;HPM_P2
2022/01/28 00:01:20;;;;;;;15.50;9.70;;;;;;;4.76;79.86;101608.72;4992366;28;20407;-44
2022/01/28 00:03:49;;;;;;;12.97;10.00;;;;;;;4.72;80.39;101594.16;4992375;28;20519;-48
2022/01/28 00:06:18;;;;;;;17.73;10.77;;;;;;;4.70;79.97;101567.84;4992532;28;20867;-47
2022/01/28 00:08:45;;;;;;;23.47;11.50;;;;;;;4.73;78.89;101601.91;4991323;28;20462;-46
2022/01/28 00:11:13;;;;;;;10.70;9.63;;;;;;;4.74;78.86;101606.25;4992375;28;20533;-49
2022/01/28 00:13:42;;;;;;;20.37;10.83;;;;;;;4.74;79.52;101602.75;4992224;28;20450;-45
2022/01/28 00:19:11;;;;;;;11.53;9.93;;;;;;;4.75;79.54;101636.97;4990453;28;20846;-44
2022/01/28 00:38:14;;;;;;;16.27;11.07;;;;;;;4.73;81.03;101649.47;4991372;28;20458;-47
2022/01/28 00:40:41;;;;;;;15.93;12.23;;;;;;;4.69;80.77;101663.91;4991905;28;20916;-45
2022/01/28 00:43:09;;;;;;;17.53;11.03;;;;;;;4.70;81.02;101677.97;4994273;28;20441;-46
2022/01/28 00:45:37;;;;;;;15.23;9.93;;;;;;;4.68;80.22;101678.13;5003313;28;20552;-44
2022/01/28 00:48:05;;;;;;;17.63;10.43;;;;;;;4.64;80.43;101684.63;5010800;28;20433;-44
2022/01/28 00:50:34;;;;;;;19.93;10.93;;;;;;;4.60;81.60;101707.00;5014212;28;20965;-45
2022/01/28 00:53:01;;;;;;;17.23;10.93;;;;;;;4.61;79.96;101684.91;5015172;28;20455;-44
2022/01/28 00:55:29;;;;;;;18.53;11.90;;;;;;;4.59;81.04;101697.44;5015127;28;20528;-44
2022/01/28 00:57:57;;;;;;;23.97;10.77;;;;;;;4.58;79.86;101702.84;5014387;28;20444;-43
2022/01/28 01:00:24;;;;;;;29.77;10.00;;;;;;;4.56;81.50;101691.56;5014984;28;20476;-49
2022/01/28 01:02:52;;;;;;;20.00;10.53;;;;;;;4.55;81.50;101696.00;5014783;28;20516;-44
2022/01/28 01:05:22;;;;;;;16.33;9.30;;;;;;;4.53;81.32;101720.91;5015137;28;20490;-47
2022/01/28 01:07:51;;;;;;;18.27;9.50;;;;;;;4.54;82.49;101726.03;5014394;28;20433;-46
2022/01/28 01:10:18;;;;;;;18.53;10.20;;;;;;;4.54;82.13;101730.50;5014857;28;20437;-46
2022/01/28 01:12:47;;;;;;;15.93;9.20;;;;;;;4.55;82.23;101727.72;5014825;28;20433;-47
2022/01/28 01:15:23;;;;;;;17.13;10.80;;;;;;;4.55;82.87;101735.63;5014662;28;20441;-44
2022/01/28 01:17:58;;;;;;;12.07;10.13;;;;;;;4.54;82.56;101744.53;5014067;28;20528;-51
2022/01/28 01:20:55;;;;;;;15.70;11.07;;;;;;;4.56;82.72;101734.69;5014824;28;20476;-45
2022/01/28 01:23:27;;;;;;;13.10;9.10;;;;;;;4.58;83.89;101743.28;5014644;28;20440;-44
2022/01/28 01:26:04;;;;;;;21.93;9.57;;;;;;;4.54;84.36;101747.16;5014321;28;20583;-43
2022/01/28 01:28:35;;;;;;;18.47;9.90;;;;;;;4.55;83.72;101758.56;5058206;22;20453;-47
2022/01/28 01:31:05;;;;;;;11.23;9.47;;;;;;;4.51;84.45;101763.28;5067250;28;20423;-44
2022/01/28 01:33:38;;;;;;;21.73;11.23;;;;;;;4.50;84.07;101769.53;5075287;28;20435;-43
2022/01/28 01:36:06;;;;;;;15.07;10.87;;;;;;;4.47;83.38;101751.31;5075220;28;20423;-45
2022/01/28 01:38:38;;;;;;;18.97;10.60;;;;;;;4.46;82.40;101773.41;5074453;28;20462;-43
2022/01/28 01:41:10;;;;;;;18.13;10.97;;;;;;;4.50;81.69;101756.34;5075515;28;20446;-45
2022/01/28 01:43:54;;;;;;;22.47;11.97;;;;;;;4.49;81.28;101767.88;5068811;28;20436;-43
2022/01/28 01:46:32;;;;;;;27.80;11.30;;;;;;;4.46;82.10;101790.09;5048327;28;20843;-44
2022/01/28 01:52:02;;;;;;;30.00;11.83;;;;;;;4.49;82.04;101807.47;5054990;28;20431;-47
2022/01/28 01:54:38;;;;;;;16.13;11.27;;;;;;;4.45;81.62;101808.72;5054986;28;20435;-45
2022/01/28 01:57:08;;;;;;;19.40;12.37;;;;;;;4.44;82.07;101815.81;5054779;28;20437;-44
2022/01/28 01:59:37;;;;;;;21.83;11.90;;;;;;;4.43;82.00;101832.63;5047796;28;20914;-43
2022/01/28 02:02:06;;;;;;;29.97;11.50;;;;;;;4.41;83.81;101828.44;5051787;28;20434;-45
2022/01/28 02:04:34;;;;;;;24.47;12.60;;;;;;;4.42;81.53;101825.66;5053253;28;20501;-42
2022/01/28 02:07:02;;;;;;;21.70;11.80;;;;;;;4.44;82.85;101839.59;5054918;28;20439;-46
2022/01/28 02:09:31;;;;;;;22.17;12.03;;;;;;;4.48;80.11;101834.84;5054364;28;20458;-45
2022/01/28 02:11:59;;;;;;;27.23;12.13;;;;;;;4.48;79.45;101832.22;5055013;28;20434;-45
2022/01/28 02:14:27;;;;;;;12.57;10.37;;;;;;;4.55;79.12;101841.31;5055179;28;20446;-45
2022/01/28 02:16:55;;;;;;;21.90;11.37;;;;;;;4.55;79.24;101853.66;5054788;28;20431;-44
2022/01/28 02:19:22;;;;;;;20.03;10.87;;;;;;;4.52;79.14;101861.84;5054328;28;20475;-43
2022/01/28 02:21:52;;;;;;;11.83;10.50;;;;;;;4.48;77.67;101850.69;5055074;28;20534;-44
2022/01/28 02:24:26;;;;;;;23.33;13.13;;;;;;;4.48;77.04;101869.19;5055243;28;20443;-43
2022/01/28 02:26:54;;;;;;;18.90;11.30;;;;;;;4.48;77.63;101871.84;5055569;28;20424;-48
2022/01/28 02:29:28;;;;;;;12.70;11.23;;;;;;;4.45;76.42;101885.31;5053664;28;20459;-44
2022/01/28 02:31:58;;;;;;;20.70;12.47;;;;;;;4.43;76.82;101876.69;5054835;28;20746;-45
2022/01/28 02:34:26;;;;;;;11.93;10.80;;;;;;;4.46;75.24;101882.53;5054743;28;20504;-47
2022/01/28 02:36:56;;;;;;;20.83;12.03;;;;;;;4.43;74.64;101903.09;5054357;28;20435;-44
2022/01/28 02:39:23;;;;;;;21.93;13.03;;;;;;;4.42;73.33;101870.56;5053920;28;20550;-47
2022/01/28 02:41:59;;;;;;;17.70;12.17;;;;;;;4.40;74.53;101901.53;5054458;28;20428;-46
2022/01/28 02:44:42;;;;;;;16.87;12.53;;;;;;;4.37;74.33;101906.25;5054566;28;20431;-44
2022/01/28 02:47:13;;;;;;;14.40;11.50;;;;;;;4.35;73.67;101916.09;5054125;28;20434;-44
2022/01/28 02:49:43;;;;;;;18.13;11.80;;;;;;;4.33;75.01;101916.22;5053764;28;20988;-43
2022/01/28 02:52:19;;;;;;;24.03;12.37;;;;;;;4.34;73.95;101914.41;5054196;28;20458;-44
2022/01/28 02:54:49;;;;;;;14.50;10.43;;;;;;;4.33;74.61;101925.97;5054352;28;20438;-45
2022/01/28 02:57:23;;;;;;;16.13;11.07;;;;;;;4.35;73.67;101921.38;5053792;28;20435;-44
2022/01/28 02:59:51;;;;;;;13.43;10.67;;;;;;;4.35;74.47;101953.91;5053459;28;20478;-46
2022/01/28 03:02:18;;;;;;;18.77;11.57;;;;;;;4.34;74.07;101922.34;5053981;28;20477;-46
2022/01/28 03:05:13;;;;;;;23.87;12.93;;;;;;;4.30;75.14;101957.91;5054067;28;20442;-44
2022/01/28 03:07:42;;;;;;;18.80;12.00;;;;;;;4.28;75.37;101965.94;5053933;28;20448;-44
2022/01/28 03:10:30;;;;;;;24.37;13.00;;;;;;;4.34;74.39;101954.88;5053075;28;20467;-43
2022/01/28 03:13:14;;;;;;;21.90;12.53;;;;;;;4.35;76.18;101958.34;5053045;28;20451;-46
2022/01/28 03:15:45;;;;;;;16.33;10.90;;;;;;;4.30;76.53;101968.47;5053805;28;20423;-45
2022/01/28 03:18:17;;;;;;;31.33;10.77;;;;;;;4.31;74.96;101949.00;5053112;28;20459;-46
2022/01/28 03:20:57;;;;;;;17.80;11.10;;;;;;;4.31;75.76;101980.69;5053690;28;20971;-44
2022/01/28 03:23:27;;;;;;;30.53;12.03;;;;;;;4.28;74.72;101976.50;5053912;28;20481;-47
2022/01/28 03:25:55;;;;;;;17.73;10.93;;;;;;;4.31;74.51;101973.63;5053953;28;20432;-44
2022/01/28 03:28:22;;;;;;;20.23;11.53;;;;;;;4.29;74.45;101986.13;5052487;28;20840;-44
2022/01/28 03:30:50;;;;;;;14.83;10.60;;;;;;;4.30;73.04;101995.69;5053563;28;20432;-46
2022/01/28 03:33:18;;;;;;;16.43;10.33;;;;;;;4.29;73.64;101993.19;5053994;28;20806;-44
2022/01/28 03:35:45;;;;;;;12.77;10.67;;;;;;;4.30;71.80;101994.88;5052465;28;20442;-44
2022/01/28 03:38:13;;;;;;;22.67;9.77;;;;;;;4.26;71.16;102001.38;5051835;28;20466;-48
2022/01/28 03:40:42;;;;;;;23.00;9.30;;;;;;;4.29;70.85;102007.25;5053146;28;20486;-48
2022/01/28 03:43:10;;;;;;;16.90;8.27;;;;;;;4.26;71.62;102025.13;5052804;28;20932;-46
2022/01/28 03:45:38;;;;;;;17.77;8.57;;;;;;;4.25;71.17;102015.53;5052996;28;20951;-44
2022/01/28 03:48:06;;;;;;;12.20;7.77;;;;;;;4.26;70.56;102017.22;5052223;28;20991;-44
2022/01/28 03:50:34;;;;;;;9.43;7.83;;;;;;;4.20;71.39;102022.97;5053419;28;20430;-44
2022/01/28 03:53:02;;;;;;;17.30;7.90;;;;;;;4.21;70.62;102028.13;5053428;28;20439;-48
2022/01/28 03:55:30;;;;;;;20.67;8.00;;;;;;;4.26;70.42;102044.47;5053250;28;20435;-43
2022/01/28 03:57:59;;;;;;;11.47;6.23;;;;;;;4.28;70.06;102053.09;5052304;28;20451;-49
2022/01/28 04:00:29;;;;;;;15.37;7.70;;;;;;;4.31;70.26;102065.19;5053244;28;20481;-48
2022/01/28 04:03:05;;;;;;;19.20;8.60;;;;;;;4.32;70.34;102082.72;5052946;28;20428;-48
2022/01/28 04:11:29;;;;;;;17.83;7.90;;;;;;;4.28;70.26;102087.41;5053070;28;20434;-45
2022/01/28 04:14:07;;;;;;;17.63;7.40;;;;;;;4.31;68.77;102091.59;5053023;28;20439;-44
2022/01/28 04:17:20;;;;;;;14.93;8.30;;;;;;;4.30;69.23;102103.16;5052774;28;20439;-46
2022/01/28 04:19:22;;;;;;;25.13;9.60;;;;;;;4.25;70.75;102092.94;5051807;28;20459;-44
2022/01/28 04:21:50;;;;;;;15.77;7.53;;;;;;;4.26;70.50;102097.28;5051747;28;20992;-44
2022/01/28 04:24:18;;;;;;;15.90;8.60;;;;;;;4.25;69.97;102103.50;5055511;28;20431;-45
2022/01/28 04:26:45;;;;;;;17.50;7.83;;;;;;;4.28;68.65;102094.50;5053943;28;20434;-48
2022/01/28 04:29:15;;;;;;;28.97;8.37;;;;;;;4.30;69.34;102101.31;5051938;28;20478;-49
2022/01/28 04:31:46;;;;;;;14.63;6.70;;;;;;;4.27;68.39;102103.38;5054342;28;20500;-43
2022/01/28 04:34:14;;;;;;;12.43;8.80;;;;;;;4.27;69.65;102114.78;5055519;28;20446;-45
2022/01/28 04:36:50;;;;;;;14.57;8.07;;;;;;;4.24;69.18;102115.00;5056281;28;20423;-47
2022/01/28 04:39:27;;;;;;;17.73;7.23;;;;;;;4.20;69.30;102121.53;5055563;28;20463;-44
2022/01/28 04:42:02;;;;;;;23.63;9.20;;;;;;;4.18;70.11;102126.06;5056545;28;20475;-44
2022/01/28 04:44:40;;;;;;;16.03;7.70;;;;;;;4.17;70.16;102127.03;5056008;28;20479;-44
2022/01/28 04:47:14;;;;;;;17.27;7.60;;;;;;;4.18;70.73;102141.09;5056084;28;20419;-45
2022/01/28 04:49:58;;;;;;;21.93;9.03;;;;;;;4.15;70.03;102136.06;5056701;28;20857;-44
2022/01/28 04:55:41;;;;;;;23.40;8.90;;;;;;;4.07;68.77;102131.34;5032855;28;20940;-45
2022/01/28 04:58:20;;;;;;;18.60;7.03;;;;;;;4.07;69.69;102147.19;5056465;28;20940;-45
2022/01/28 05:01:01;;;;;;;12.67;8.57;;;;;;;4.08;69.49;102156.81;5056696;28;20553;-43
2022/01/28 05:03:42;;;;;;;18.20;8.87;;;;;;;4.04;70.52;102150.06;5056591;28;20816;-45
2022/01/28 05:06:39;;;;;;;11.97;7.53;;;;;;;4.02;70.26;102185.47;5056539;28;20429;-45
2022/01/28 05:12:42;;;;;;;19.27;10.13;;;;;;;3.96;71.96;102189.44;5056458;28;20431;-48
2022/01/28 05:24:05;;;;;;;16.43;8.37;;;;;;;3.88;71.13;102219.03;5056257;28;20441;-45
2022/01/28 05:26:35;;;;;;;18.00;8.37;;;;;;;3.85;71.54;102229.00;5056077;28;20930;-44
2022/01/28 05:29:03;;;;;;;28.30;7.73;;;;;;;3.84;71.16;102236.09;5055221;28;21045;-44
2022/01/28 05:31:31;;;;;;;16.53;8.50;;;;;;;3.81;72.14;102246.88;5055481;28;20940;-46
2022/01/28 05:34:02;;;;;;;29.87;9.97;;;;;;;3.79;71.46;102259.31;5055932;28;20948;-48
2022/01/28 05:36:29;;;;;;;20.93;9.30;;;;;;;3.76;73.62;102264.00;5055109;28;20948;-45
2022/01/28 05:38:57;;;;;;;20.23;9.10;;;;;;;3.73;73.33;102267.69;5054891;28;20460;-45
2022/01/28 05:41:25;;;;;;;22.23;10.13;;;;;;;3.72;72.30;102268.69;5055802;28;20475;-46
2022/01/28 05:43:52;;;;;;;15.10;9.57;;;;;;;3.70;72.58;102278.47;5055443;28;20515;-45
2022/01/28 05:46:20;;;;;;;21.77;9.30;;;;;;;3.69;71.81;102270.69;5055913;28;20435;-45
2022/01/28 05:48:48;;;;;;;22.30;8.77;;;;;;;3.68;71.27;102283.03;5055372;28;20478;-45
2022/01/28 05:51:18;;;;;;;19.90;9.67;;;;;;;3.69;71.99;102292.66;5055558;28;20423;-44
2022/01/28 05:53:46;;;;;;;12.90;8.80;;;;;;;3.65;73.01;102307.00;5056553;28;20439;-44
2022/01/28 05:56:13;;;;;;;23.77;11.23;;;;;;;3.67;71.92;102302.47;5055565;28;20436;-49
2022/01/28 05:58:41;;;;;;;25.47;11.00;;;;;;;3.64;72.90;102304.50;5055242;28;20474;-50
2022/01/28 06:01:09;;;;;;;18.97;10.43;;;;;;;3.60;73.35;102311.78;5055314;28;20481;-47
2022/01/28 06:03:36;;;;;;;21.20;9.30;;;;;;;3.56;72.64;102301.56;5055426;28;20439;-45
2022/01/28 06:06:04;;;;;;;17.30;10.23;;;;;;;3.55;73.85;102310.47;5055031;28;20450;-45
2022/01/28 06:08:34;;;;;;;15.43;9.20;;;;;;;3.54;73.64;102322.78;5054006;28;21349;-46
2022/01/28 06:11:02;;;;;;;17.00;10.80;;;;;;;3.54;72.71;102327.22;5055466;28;20801;-44
2022/01/28 06:13:29;;;;;;;16.47;10.53;;;;;;;3.52;72.66;102327.34;5054909;28;20446;-47
2022/01/28 06:15:57;;;;;;;21.67;10.50;;;;;;;3.49;73.81;102346.03;5055481;28;20434;-47
2022/01/28 06:18:25;;;;;;;24.37;10.03;;;;;;;3.48;73.38;102346.97;5054360;28;20463;-45
2022/01/28 06:20:53;;;;;;;25.13;10.67;;;;;;;3.45;73.79;102346.34;5055361;28;20431;-44
2022/01/28 06:23:20;;;;;;;25.13;10.00;;;;;;;3.43;74.61;102346.50;5053421;28;20467;-44
2022/01/28 06:25:50;;;;;;;19.90;9.70;;;;;;;3.39;74.70;102344.16;5053535;28;20932;-44
2022/01/28 06:28:18;;;;;;;17.83;9.87;;;;;;;3.38;75.30;102364.41;5053640;28;20469;-44
2022/01/28 06:30:45;;;;;;;32.83;12.10;;;;;;;3.36;75.85;102358.41;5054718;28;20428;-46
2022/01/28 06:33:14;;;;;;;28.30;11.77;;;;;;;3.34;76.04;102355.88;5054619;28;20436;-44
2022/01/28 06:35:42;;;;;;;13.57;9.73;;;;;;;3.32;75.90;102381.53;5054436;28;20443;-44
2022/01/28 06:38:10;;;;;;;18.13;10.70;;;;;;;3.31;75.36;102385.13;5053890;28;20463;-44
2022/01/28 06:40:38;;;;;;;26.57;11.10;;;;;;;3.31;75.93;102379.84;5053922;28;20427;-45
2022/01/28 06:43:10;;;;;;;13.83;9.87;;;;;;;3.30;75.43;102388.72;5054551;28;20478;-47
2022/01/28 06:45:40;;;;;;;17.73;11.63;;;;;;;3.27;76.95;102409.16;5053589;28;20421;-44
2022/01/28 06:48:08;;;;;;;20.80;10.67;;;;;;;3.29;76.08;102404.63;5052815;28;20463;-47
2022/01/28 06:50:35;;;;;;;17.63;10.47;;;;;;;3.27;75.85;102412.66;5053692;28;20435;-44
2022/01/28 06:53:03;;;;;;;19.83;9.90;;;;;;;3.26;76.73;102410.13;5054023;28;20953;-45
2022/01/28 06:55:30;;;;;;;17.30;9.70;;;;;;;3.26;77.01;102425.94;5053934;28;20434;-49
2022/01/28 06:57:58;;;;;;;17.30;8.97;;;;;;;3.24;76.15;102428.69;5053074;28;20455;-45
2022/01/28 07:00:27;;;;;;;24.60;11.00;;;;;;;3.25;77.40;102426.91;5053950;28;20431;-47
2022/01/28 07:02:54;;;;;;;35.23;11.47;;;;;;;3.23;76.85;102442.81;5053540;28;20467;-45
2022/01/28 07:05:22;;;;;;;22.13;11.07;;;;;;;3.23;77.46;102450.72;5053710;28;20431;-45
2022/01/28 07:07:50;;;;;;;14.60;9.90;;;;;;;3.23;76.46;102449.88;5052936;28;20447;-47
2022/01/28 07:10:17;;;;;;;23.00;11.53;;;;;;;3.22;77.02;102448.22;5053840;28;20453;-44
2022/01/28 07:12:45;;;;;;;18.03;11.17;;;;;;;3.23;78.26;102460.41;5053635;28;20446;-43
2022/01/28 07:15:12;;;;;;;17.40;10.60;;;;;;;3.21;78.00;102457.06;5053447;28;20443;-46
2022/01/28 07:17:41;;;;;;;16.33;10.10;;;;;;;3.21;77.22;102467.59;5053353;28;20451;-46
2022/01/28 07:20:09;;;;;;;20.33;11.73;;;;;;;3.21;77.26;102472.88;5053114;28;20467;-44
2022/01/28 07:22:37;;;;;;;24.77;12.40;;;;;;;3.23;77.86;102478.88;5053524;28;20471;-44
2022/01/28 07:25:06;;;;;;;24.37;11.00;;;;;;;3.20;77.26;102479.09;5053523;28;20436;-44
2022/01/28 07:27:33;;;;;;;23.53;10.53;;;;;;;3.21;77.79;102488.69;5052790;28;21381;-46
2022/01/28 07:30:01;;;;;;;50.60;12.50;;;;;;;3.18;78.68;102496.81;5066654;22;20483;-50
2022/01/28 07:32:28;;;;;;;29.23;10.43;;;;;;;3.19;78.91;102509.06;5051710;28;20454;-51
2022/01/28 07:34:58;;;;;;;15.53;11.97;;;;;;;3.16;78.89;102504.84;5052076;28;20438;-52
2022/01/28 07:37:25;;;;;;;21.93;11.53;;;;;;;3.15;78.92;102503.16;5051783;28;20432;-49
2022/01/28 07:39:53;;;;;;;23.70;12.20;;;;;;;3.16;79.68;102504.84;5051156;28;20972;-49
2022/01/28 07:42:21;;;;;;;21.70;11.53;;;;;;;3.16;79.50;102511.91;5052080;28;20816;-49
2022/01/28 07:44:48;;;;;;;27.70;13.30;;;;;;;3.16;79.46;102522.44;5051427;28;20439;-47
2022/01/28 07:47:16;;;;;;;18.27;10.63;;;;;;;3.13;79.83;102531.41;5051357;28;20427;-51
2022/01/28 07:49:44;;;;;;;18.20;10.90;;;;;;;3.15;79.34;102539.22;5051170;28;20467;-48
2022/01/28 07:52:13;;;;;;;24.77;12.27;;;;;;;3.15;80.43;102547.13;5051634;28;20917;-48
2022/01/28 07:54:49;;;;;;;21.57;10.97;;;;;;;3.17;80.59;102547.84;5052017;28;20678;-49
2022/01/28 07:57:16;;;;;;;20.87;10.60;;;;;;;3.17;80.02;102546.06;5051459;28;20428;-47
2022/01/28 07:59:44;;;;;;;17.80;11.37;;;;;;;3.21;79.41;102570.41;5050623;28;20821;-48
2022/01/28 08:02:11;;;;;;;17.97;12.10;;;;;;;3.22;80.52;102577.41;5051936;28;20775;-48
2022/01/28 08:04:39;;;;;;;19.30;11.73;;;;;;;3.23;80.28;102579.06;5051475;28;20936;-48
2022/01/28 08:07:07;;;;;;;25.87;12.50;;;;;;;3.24;80.23;102586.88;5051795;28;20797;-52
2022/01/28 08:09:36;;;;;;;21.70;12.00;;;;;;;3.26;80.35;102586.75;5050951;28;20473;-53
2022/01/28 08:12:05;;;;;;;28.73;12.37;;;;;;;3.25;79.14;102585.09;5051404;28;20427;-48
2022/01/28 08:14:32;;;;;;;18.23;11.20;;;;;;;3.30;79.84;102599.66;5051445;28;20435;-49
2022/01/28 08:17:00;;;;;;;18.10;10.30;;;;;;;3.32;79.79;102604.81;5051788;28;20458;-47
2022/01/28 08:19:28;;;;;;;16.57;10.50;;;;;;;3.35;80.74;102608.09;5050838;28;20470;-48
2022/01/28 08:21:55;;;;;;;33.23;11.70;;;;;;;3.34;80.79;102611.66;5051237;28;20441;-52
2022/01/28 08:24:23;;;;;;;23.30;11.17;;;;;;;3.35;79.76;102623.06;5051349;28;20471;-48
2022/01/28 08:26:53;;;;;;;18.67;10.97;;;;;;;3.43;80.04;102627.81;5051222;28;20878;-47
2022/01/28 08:29:21;;;;;;;16.80;12.73;;;;;;;3.45;80.55;102633.81;5050558;28;20491;-52
2022/01/28 08:31:49;;;;;;;14.20;10.43;;;;;;;3.46;79.57;102641.66;5051332;28;20465;-47
2022/01/28 08:34:16;;;;;;;22.73;10.70;;;;;;;3.49;78.56;102651.16;5051349;28;20527;-47
2022/01/28 08:36:44;;;;;;;33.43;11.50;;;;;;;3.53;78.71;102648.19;5051259;28;20803;-50
2022/01/28 08:39:12;;;;;;;18.83;12.10;;;;;;;3.56;79.18;102657.66;5050404;28;20847;-47
2022/01/28 08:41:42;;;;;;;15.87;11.47;;;;;;;3.60;79.19;102660.00;5051321;28;20756;-49
2022/01/28 08:44:17;;;;;;;19.43;11.30;;;;;;;3.65;78.28;102667.59;5051298;28;20465;-47
2022/01/28 08:46:45;;;;;;;21.83;11.60;;;;;;;3.68;78.75;102677.94;5051122;28;20538;-48
2022/01/28 08:49:13;;;;;;;21.67;10.33;;;;;;;3.70;77.29;102676.88;5050495;28;20992;-47
2022/01/28 08:51:40;;;;;;;17.50;9.97;;;;;;;3.75;78.11;102674.78;5050902;28;20431;-47
2022/01/28 08:54:08;;;;;;;25.10;10.40;;;;;;;3.76;77.97;102694.94;5051033;28;20436;-49
2022/01/28 08:56:36;;;;;;;18.40;10.23;;;;;;;3.83;78.12;102709.41;5051125;28;20431;-48
2022/01/28 08:59:24;;;;;;;22.40;10.07;;;;;;;3.88;76.61;102717.03;5050418;28;20474;-48
2022/01/28 09:01:52;;;;;;;18.90;9.53;;;;;;;3.96;76.59;102719.97;5051024;28;20434;-49
2022/01/28 09:04:20;;;;;;;12.60;8.93;;;;;;;4.00;75.22;102731.16;5050827;28;20483;-47
2022/01/28 09:06:47;;;;;;;17.67;10.07;;;;;;;4.01;75.81;102728.41;5051112;28;20434;-47
2022/01/28 09:09:18;;;;;;;16.80;9.57;;;;;;;4.04;75.43;102722.91;5050253;28;20463;-47
2022/01/28 09:11:52;;;;;;;20.27;11.67;;;;;;;4.10;76.10;102727.78;5054132;28;20442;-48
2022/01/28 09:14:21;;;;;;;25.10;11.80;;;;;;;4.13;74.92;102732.84;5054541;28;20457;-47
2022/01/28 09:16:52;;;;;;;24.07;11.10;;;;;;;4.17;74.84;102752.81;5054227;28;20419;-51
2022/01/28 09:19:19;;;;;;;18.13;8.93;;;;;;;4.25;75.59;102757.56;5053914;28;20463;-50
2022/01/28 09:21:47;;;;;;;22.73;9.10;;;;;;;4.28;75.55;102758.19;5054558;28;20431;-49
2022/01/28 09:24:15;;;;;;;17.53;9.90;;;;;;;4.32;74.26;102756.19;5054290;28;20855;-49
2022/01/28 09:26:42;;;;;;;11.50;9.50;;;;;;;4.35;74.18;102758.63;5054223;28;20438;-48
2022/01/28 09:29:10;;;;;;;22.57;10.10;;;;;;;4.40;73.92;102761.75;5053342;28;20688;-51
2022/01/28 09:31:38;;;;;;;14.57;9.03;;;;;;;4.40;73.72;102762.63;5054355;28;20428;-50
2022/01/28 09:34:07;;;;;;;15.40;9.03;;;;;;;4.44;73.16;102756.19;5054300;28;20526;-50
2022/01/28 09:36:35;;;;;;;15.63;8.47;;;;;;;4.48;73.22;102773.47;5054170;28;20807;-48
2022/01/28 09:39:06;;;;;;;13.77;8.80;;;;;;;4.52;73.03;102760.06;5053492;28;20953;-48
2022/01/28 09:41:35;;;;;;;12.43;9.80;;;;;;;4.56;73.25;102759.75;5053942;28;20435;-50
2022/01/28 09:44:03;;;;;;;17.17;8.80;;;;;;;4.60;72.79;102769.13;5053965;28;20475;-47
2022/01/28 09:46:31;;;;;;;25.50;8.97;;;;;;;4.59;72.73;102766.59;5053613;28;20436;-48
2022/01/28 09:48:59;;;;;;;19.43;9.77;;;;;;;4.67;73.38;102773.03;5053028;28;21003;-47
2022/01/28 09:51:28;;;;;;;11.90;8.93;;;;;;;4.74;72.91;102773.44;5053857;28;20454;-52
2022/01/28 09:53:55;;;;;;;13.77;9.50;;;;;;;4.76;71.96;102775.03;5053754;28;20797;-47
2022/01/28 09:56:23;;;;;;;11.63;9.10;;;;;;;4.79;73.47;102780.09;5053572;28;20432;-48
2022/01/28 09:58:50;;;;;;;18.43;10.50;;;;;;;4.85;71.82;102766.44;5052940;28;20467;-48
2022/01/28 10:01:18;;;;;;;15.60;9.80;;;;;;;4.86;71.64;102768.13;5053747;28;20431;-49
2022/01/28 10:03:46;;;;;;;21.23;9.10;;;;;;;4.88;70.97;102763.56;5053668;28;20502;-49
2022/01/28 10:06:14;;;;;;;22.00;8.90;;;;;;;4.92;71.40;102782.69;5053769;28;20423;-55
2022/01/28 10:08:54;;;;;;;20.90;9.17;;;;;;;4.95;71.00;102779.84;5052522;28;20467;-48
2022/01/28 10:11:22;;;;;;;18.63;8.37;;;;;;;5.05;71.80;102778.19;5053659;28;20422;-48
2022/01/28 10:13:52;;;;;;;24.70;8.03;;;;;;;5.07;70.29;102780.75;5053392;28;20432;-51
2022/01/28 10:16:23;;;;;;;18.83;8.50;;;;;;;5.13;70.78;102793.53;5053354;28;20445;-47
2022/01/28 10:18:53;;;;;;;16.50;10.27;;;;;;;5.15;70.22;102786.31;5052581;28;20467;-48
2022/01/28 10:21:27;;;;;;;15.30;9.40;;;;;;;5.14;70.07;102785.47;5052872;28;20415;-50
2022/01/28 10:24:01;;;;;;;19.20;9.60;;;;;;;5.20;70.16;102800.03;5053130;28;20493;-49
2022/01/28 10:26:31;;;;;;;12.80;7.37;;;;;;;5.18;69.38;102799.31;5053196;28;20424;-50
2022/01/28 10:29:01;;;;;;;12.63;9.07;;;;;;;5.19;69.87;102799.22;5052271;28;20478;-49
2022/01/28 10:31:44;;;;;;;18.10;8.17;;;;;;;5.26;69.33;102804.88;5052980;28;20860;-51
2022/01/28 10:34:14;;;;;;;21.87;8.10;;;;;;;5.33;68.91;102801.69;5053181;28;20435;-52
2022/01/28 10:36:42;;;;;;;18.20;8.10;;;;;;;5.39;69.85;102800.41;5053112;28;20534;-50
2022/01/28 10:39:16;;;;;;;17.20;8.93;;;;;;;5.32;69.56;102793.84;5052131;28;20493;-48
2022/01/28 10:41:58;;;;;;;22.03;8.33;;;;;;;5.33;68.46;102790.25;5052725;28;20913;-50
2022/01/28 10:44:28;;;;;;;12.13;7.87;;;;;;;5.34;68.48;102791.97;5052751;28;20475;-48
2022/01/28 10:47:01;;;;;;;15.43;8.30;;;;;;;5.42;69.47;102793.09;5052495;28;20438;-48
2022/01/28 10:49:31;;;;;;;14.40;7.13;;;;;;;5.50;68.53;102796.00;5052066;28;20473;-52
2022/01/28 10:52:06;;;;;;;16.53;7.87;;;;;;;5.54;67.67;102788.69;5052598;28;20455;-50
2022/01/28 10:54:36;;;;;;;14.60;8.00;;;;;;;5.54;68.57;102797.47;5052331;28;20427;-49
2022/01/28 10:57:10;;;;;;;12.30;7.70;;;;;;;5.67;68.83;102799.19;5052352;28;21015;-48
2022/01/28 10:59:39;;;;;;;13.20;7.73;;;;;;;5.70;68.75;102799.81;5051987;28;20464;-51
2022/01/28 11:02:07;;;;;;;10.50;7.93;;;;;;;5.72;67.86;102816.41;5052328;28;20952;-51
2022/01/28 11:04:36;;;;;;;10.33;8.80;;;;;;;5.78;66.89;102810.66;5052386;28;20992;-48
2022/01/28 11:07:05;;;;;;;9.50;7.93;;;;;;;5.83;66.90;102816.44;5052161;28;20439;-48
2022/01/28 11:09:32;;;;;;;8.37;6.70;;;;;;;5.76;66.47;102828.47;5051625;28;20832;-52
2022/01/28 11:12:02;;;;;;;9.70;7.13;;;;;;;5.82;66.20;102817.44;5052301;28;20511;-49
2022/01/28 11:14:29;;;;;;;10.90;7.20;;;;;;;5.83;66.86;102819.09;5052297;28;20432;-53
2022/01/28 11:16:58;;;;;;;8.80;7.37;;;;;;;5.77;67.04;102816.91;5052202;28;20777;-49
2022/01/28 11:19:29;;;;;;;19.17;8.83;;;;;;;5.82;68.62;102835.97;5051339;28;20481;-50
2022/01/28 11:22:11;;;;;;;11.33;7.33;;;;;;;5.85;68.37;102835.78;5052497;28;20416;-51
2022/01/28 11:24:55;;;;;;;15.67;7.10;;;;;;;5.91;67.61;102822.03;5052096;28;20480;-50
2022/01/28 11:27:30;;;;;;;14.97;7.70;;;;;;;5.92;67.87;102813.16;5051900;28;20766;-48
2022/01/28 11:30:27;;;;;;;19.93;7.63;;;;;;;5.97;67.34;102820.75;5050949;28;20486;-50
2022/01/28 11:33:00;;;;;;;11.07;7.53;;;;;;;6.01;67.04;102822.19;5051493;28;20449;-49
2022/01/28 11:35:35;;;;;;;14.37;7.93;;;;;;;6.03;68.40;102825.59;5051875;28;20426;-51
2022/01/28 11:38:41;;;;;;;9.20;7.93;;;;;;;6.06;67.34;102823.53;5051101;28;20799;-48
2022/01/28 11:41:12;;;;;;;11.27;7.77;;;;;;;6.02;68.85;102834.47;5051963;28;20427;-48
2022/01/28 11:43:50;;;;;;;11.50;7.47;;;;;;;6.01;66.66;102825.69;5051899;28;20442;-48
2022/01/28 11:46:23;;;;;;;14.90;8.53;;;;;;;5.99;66.95;102824.13;5051673;28;20546;-47
2022/01/28 11:49:09;;;;;;;15.00;8.43;;;;;;;6.04;67.02;102816.66;5050882;28;20474;-50
2022/01/28 11:51:39;;;;;;;14.80;9.17;;;;;;;6.09;68.14;102823.28;5039177;28;20435;-54
2022/01/28 11:54:09;;;;;;;16.67;8.30;;;;;;;6.09;67.19;102838.38;5051611;28;20439;-50
2022/01/28 11:56:38;;;;;;;11.73;7.13;;;;;;;6.10;66.09;102834.75;5051604;28;20435;-47
2022/01/28 11:59:08;;;;;;;16.33;7.47;;;;;;;6.09;67.25;102836.53;5050888;28;20474;-49
2022/01/28 12:02:08;;;;;;;10.63;6.97;;;;;;;6.06;65.41;102836.78;5051829;28;20428;-49
2022/01/28 12:04:37;;;;;;;12.10;8.30;;;;;;;6.08;68.07;102850.75;5051552;28;20471;-47
2022/01/28 12:07:06;;;;;;;23.20;8.70;;;;;;;6.17;68.11;102840.41;5051414;28;20432;-47
2022/01/28 12:09:36;;;;;;;21.50;8.00;;;;;;;6.22;67.81;102835.59;5050589;28;20474;-51
2022/01/28 12:12:08;;;;;;;16.60;8.10;;;;;;;6.32;69.45;102833.94;5051665;28;20427;-48
2022/01/28 12:15:00;;;;;;;11.80;8.27;;;;;;;6.40;69.19;102835.03;5051621;28;20431;-52
2022/01/28 12:17:38;;;;;;;14.13;8.90;;;;;;;6.51;69.21;102847.47;5051201;28;20420;-51
2022/01/28 12:20:38;;;;;;;9.07;7.30;;;;;;;6.47;66.23;102835.41;5051154;28;20447;-48
2022/01/28 12:23:25;;;;;;;11.23;7.70;;;;;;;6.40;66.77;102836.84;5051463;28;20439;-47